Youngsville, New Mexico
Current Conditions -  °F | °C
As of 6:15 PM on Sunday 23 Nov 2014 (Local Time) from KLAM Reporting Station
Clear Clear  
Wind Chill: 23°   Ceiling: Unl
Heat Index: 32°   Visibility: 10mi
Dew Point:   Wind: 12mph
Humidity: 38%   Direction: 330°NNW
Pressure: 29.92"   Gusts: 22mph
Location:  36.19°N, 106.56°W
Report Text: KLAM 240115Z AUTO 33010G19KT 10SM CLR 00/M13 A2992 RMK AO2 T00021126
Loading
Personal Weather Stations






























Interactive Weather Map New forecast layout! Learn more

10-Day Weather Forecast

Advertisements
Track Severe Weather on mobile